Time;durP1;ratioP1;P1;durP2;ratioP2;P2;SDS_P1;SDS_P2;PMS_P1;PMS_P2;Temp;Humidity;BMP_temperature;BMP_pressure;BME280_temperature;BME280_humidity;BME280_pressure;Samples;Min_cycle;Max_cycle;Signal;HPM_P1;HPM_P2
2021/10/21 00:01:09;;;;;;;14.45;7.05;;;;;;;6.71;100.00;100708.22;1730701;83;21010;-84
2021/10/21 00:03:43;;;;;;;15.40;7.27;;;;;;;6.70;100.00;100704.69;1732148;80;21010;-83
2021/10/21 00:06:14;;;;;;;17.60;7.53;;;;;;;6.68;100.00;100704.47;1730963;82;21574;-84
2021/10/21 00:08:45;;;;;;;16.67;7.83;;;;;;;6.64;100.00;100706.06;1731259;83;21049;-81
2021/10/21 00:11:14;;;;;;;15.93;7.80;;;;;;;6.63;100.00;100694.09;1731056;82;21034;-80
2021/10/21 00:13:47;;;;;;;17.97;7.83;;;;;;;6.62;100.00;100694.59;1719595;83;21094;-84
2021/10/21 00:16:16;;;;;;;19.32;8.15;;;;;;;6.63;100.00;100696.78;1731991;83;20990;-81
2021/10/21 00:18:45;;;;;;;15.10;7.70;;;;;;;6.62;100.00;100699.97;1731816;82;21014;-85
2021/10/21 00:21:12;;;;;;;16.40;7.43;;;;;;;6.61;100.00;100697.41;1731499;83;21053;-84
2021/10/21 00:23:40;;;;;;;17.43;7.70;;;;;;;6.60;100.00;100693.84;1730700;83;21532;-85
2021/10/21 00:26:09;;;;;;;19.20;8.00;;;;;;;6.60;100.00;100691.16;1731426;80;21030;-84
2021/10/21 00:28:37;;;;;;;17.57;7.87;;;;;;;6.60;100.00;100689.81;1719529;83;21022;-81
2021/10/21 00:31:13;;;;;;;18.13;8.03;;;;;;;6.63;100.00;100688.72;1732190;83;20982;-82
2021/10/21 00:33:42;;;;;;;14.87;8.07;;;;;;;6.65;100.00;100686.75;1731988;80;21119;-83
2021/10/21 00:36:18;;;;;;;17.20;8.67;;;;;;;6.67;100.00;100677.22;1731727;82;21051;-84
2021/10/21 00:38:45;;;;;;;14.87;7.87;;;;;;;6.68;100.00;100673.56;1731625;83;21866;-82
2021/10/21 00:41:29;;;;;;;14.70;7.73;;;;;;;6.70;100.00;100667.06;1715692;83;21066;-80
2021/10/21 00:44:11;;;;;;;15.57;7.70;;;;;;;6.72;100.00;100665.09;1670890;85;21025;-79
2021/10/21 00:46:44;;;;;;;18.03;8.87;;;;;;;6.75;100.00;100662.65;1691621;85;21040;-81
2021/10/21 00:49:11;;;;;;;18.20;8.53;;;;;;;6.77;100.00;100662.86;1690831;84;21070;-80
2021/10/21 00:51:39;;;;;;;15.17;8.27;;;;;;;6.79;100.00;100667.61;1713652;84;21043;-83
2021/10/21 00:54:06;;;;;;;18.03;8.57;;;;;;;6.82;100.00;100667.36;1713926;84;21064;-84
2021/10/21 00:56:35;;;;;;;16.57;8.50;;;;;;;6.84;100.00;100663.20;1713660;84;21058;-81
2021/10/21 00:59:04;;;;;;;18.30;8.33;;;;;;;6.87;100.00;100671.48;1713980;84;21040;-83
2021/10/21 01:01:37;;;;;;;15.87;8.00;;;;;;;6.89;100.00;100655.59;1690210;84;21040;-85
2021/10/21 01:04:07;;;;;;;17.53;9.10;;;;;;;6.91;100.00;100651.44;1691547;84;21175;-79
2021/10/21 01:06:40;;;;;;;17.17;8.13;;;;;;;6.92;100.00;100655.80;1713715;84;20997;-82
2021/10/21 01:09:11;;;;;;;17.07;8.50;;;;;;;6.93;100.00;100654.84;1689323;84;21072;-86
2021/10/21 01:11:46;;;;;;;16.50;8.33;;;;;;;6.96;100.00;100651.89;1714498;84;21041;-85
2021/10/21 01:14:16;;;;;;;16.73;8.77;;;;;;;6.96;100.00;100654.58;1713932;84;21131;-81
2021/10/21 01:16:45;;;;;;;18.63;9.37;;;;;;;6.96;100.00;100645.17;1713094;84;21087;-82
2021/10/21 01:19:19;;;;;;;17.57;8.50;;;;;;;6.98;100.00;100641.84;1713944;84;20977;-80
2021/10/21 01:21:51;;;;;;;17.03;8.93;;;;;;;6.99;100.00;100641.72;1713503;84;21114;-82
2021/10/21 01:24:21;;;;;;;18.33;9.13;;;;;;;7.00;100.00;100632.65;1713946;84;21087;-84
2021/10/21 01:26:55;;;;;;;17.57;9.23;;;;;;;7.02;100.00;100632.02;1690598;84;21040;-82
2021/10/21 01:29:26;;;;;;;16.63;9.00;;;;;;;7.04;100.00;100630.55;1691956;84;21004;-80
2021/10/21 01:32:07;;;;;;;17.40;8.90;;;;;;;7.06;100.00;100631.76;1713382;84;21021;-80
2021/10/21 01:34:36;;;;;;;17.33;9.47;;;;;;;7.08;100.00;100636.51;1692327;85;21109;-78
2021/10/21 01:37:05;;;;;;;15.97;8.60;;;;;;;7.09;100.00;100632.84;1693696;85;21073;-80
2021/10/21 01:39:32;;;;;;;18.17;9.43;;;;;;;7.10;100.00;100631.38;1739309;81;21571;-79
2021/10/21 01:41:59;;;;;;;17.13;9.63;;;;;;;7.11;100.00;100630.36;1780514;81;21546;-79
2021/10/21 01:44:32;;;;;;;19.27;9.93;;;;;;;7.11;100.00;100620.11;1780872;80;20962;-82
2021/10/21 01:47:01;;;;;;;19.80;9.57;;;;;;;7.12;100.00;100614.60;1755145;81;21030;-79
2021/10/21 01:49:31;;;;;;;18.00;8.90;;;;;;;7.14;100.00;100622.04;1780752;80;21026;-81
2021/10/21 01:52:03;;;;;;;16.87;8.67;;;;;;;7.16;100.00;100615.19;1780743;80;21061;-82
2021/10/21 01:54:35;;;;;;;17.90;9.67;;;;;;;7.18;100.00;100620.77;1780778;81;20986;-84
2021/10/21 01:57:09;;;;;;;17.17;9.00;;;;;;;7.19;100.00;100614.92;1780833;81;21058;-81
2021/10/21 01:59:39;;;;;;;19.40;10.13;;;;;;;7.20;100.00;100603.16;1780597;81;21053;-83
2021/10/21 02:02:14;;;;;;;19.20;10.60;;;;;;;7.22;100.00;100609.25;1780725;81;21003;-81
2021/10/21 02:04:44;;;;;;;19.67;10.27;;;;;;;7.23;100.00;100609.62;1780401;81;21014;-84
2021/10/21 02:07:12;;;;;;;20.23;11.30;;;;;;;7.22;100.00;100614.16;1780317;81;21054;-80
2021/10/21 02:09:41;;;;;;;21.60;10.73;;;;;;;7.22;100.00;100596.67;1780823;81;21033;-84
2021/10/21 02:12:12;;;;;;;18.03;10.07;;;;;;;7.22;100.00;100604.74;1786425;80;20954;-82
2021/10/21 02:14:42;;;;;;;17.07;9.40;;;;;;;7.25;100.00;100610.33;1760299;80;20961;-82
2021/10/21 02:17:16;;;;;;;18.93;10.07;;;;;;;7.27;100.00;100600.78;1791073;79;21029;-83
2021/10/21 02:19:43;;;;;;;18.40;10.07;;;;;;;7.29;100.00;100616.29;1790851;80;21053;-83
2021/10/21 02:22:16;;;;;;;18.47;9.87;;;;;;;7.29;100.00;100613.09;1790708;80;20997;-81
2021/10/21 02:24:47;;;;;;;17.77;9.25;;;;;;;7.29;100.00;100609.06;1791308;80;21112;-83
2021/10/21 02:27:16;;;;;;;19.23;9.90;;;;;;;7.31;100.00;100621.91;1791136;80;20994;-84
2021/10/21 02:29:44;;;;;;;17.47;10.10;;;;;;;7.34;100.00;100615.39;1791299;80;21045;-82
2021/10/21 02:32:27;;;;;;;22.37;10.30;;;;;;;7.35;100.00;100621.98;1758196;80;21030;-81
2021/10/21 02:34:54;;;;;;;19.27;9.80;;;;;;;7.36;100.00;100634.43;1734105;80;20994;-80
2021/10/21 02:37:21;;;;;;;17.73;9.80;;;;;;;7.39;100.00;100622.56;1791279;80;20998;-81
2021/10/21 02:39:48;;;;;;;20.93;10.10;;;;;;;7.43;100.00;100633.91;1790971;80;20997;-81
2021/10/21 02:42:14;;;;;;;17.27;10.00;;;;;;;7.44;100.00;100634.24;1751387;82;21004;-82
2021/10/21 02:44:44;;;;;;;19.70;10.83;;;;;;;7.44;100.00;100631.08;1758452;80;21001;-86
2021/10/21 02:47:20;;;;;;;22.93;10.87;;;;;;;7.44;100.00;100631.55;1784187;80;21049;-82
2021/10/21 02:50:34;;;;;;;17.93;10.23;;;;;;;7.43;100.00;100630.71;1742500;82;21054;-84
2021/10/21 02:53:03;;;;;;;;;;;;;;;7.42;100.00;100630.37;1734512;83;20987;-83
2021/10/21 02:55:53;;;;;;;17.70;9.80;;;;;;;7.41;100.00;100621.93;1731605;83;20428;-78
2021/10/21 02:58:21;;;;;;;20.03;10.23;;;;;;;7.40;100.00;100624.25;1674244;85;21725;-74
2021/10/21 03:00:48;;;;;;;19.57;9.77;;;;;;;7.38;100.00;100622.19;1692426;85;21526;-75
2021/10/21 03:03:15;;;;;;;18.07;10.00;;;;;;;7.37;100.00;100618.66;1691972;85;21023;-71
2021/10/21 03:05:42;;;;;;;19.47;11.20;;;;;;;7.36;100.00;100623.67;1691576;85;21038;-74
2021/10/21 03:08:09;;;;;;;20.03;10.90;;;;;;;7.36;100.00;100619.63;1691842;85;21050;-73
2021/10/21 03:10:36;;;;;;;17.83;9.73;;;;;;;7.36;100.00;100618.80;1691940;85;21062;-74
2021/10/21 03:13:03;;;;;;;19.90;11.20;;;;;;;7.35;100.00;100608.53;1691694;85;21074;-74
2021/10/21 03:15:30;;;;;;;18.73;10.77;;;;;;;7.35;100.00;100606.34;1691604;85;21082;-73
2021/10/21 03:17:57;;;;;;;20.00;11.17;;;;;;;7.32;100.00;100599.37;1692030;85;21059;-73
2021/10/21 03:20:24;;;;;;;20.13;10.97;;;;;;;7.32;100.00;100595.84;1691927;85;21053;-72
2021/10/21 03:22:51;;;;;;;20.50;10.23;;;;;;;7.31;100.00;100597.70;1691394;85;21058;-73
2021/10/21 03:25:18;;;;;;;17.63;10.07;;;;;;;7.31;100.00;100599.52;1691832;85;21058;-72
2021/10/21 03:27:45;;;;;;;17.37;10.10;;;;;;;7.32;100.00;100587.78;1691444;85;21086;-72
2021/10/21 03:30:12;;;;;;;19.10;10.60;;;;;;;7.33;100.00;100593.50;1716704;84;21002;-73
2021/10/21 03:32:40;;;;;;;17.33;9.83;;;;;;;7.33;100.00;100593.50;1716548;84;21086;-74
2021/10/21 03:35:08;;;;;;;17.80;10.17;;;;;;;7.35;100.00;100590.20;1694634;84;21027;-74
2021/10/21 03:37:36;;;;;;;20.27;11.27;;;;;;;7.36;100.00;100593.23;1694514;84;21089;-75
2021/10/21 03:40:06;;;;;;;20.33;10.30;;;;;;;7.35;100.00;100593.73;1694696;84;21006;-72
2021/10/21 03:42:33;;;;;;;20.83;10.57;;;;;;;7.36;100.00;100589.20;1716351;84;21336;-75
2021/10/21 03:45:00;;;;;;;19.13;10.43;;;;;;;7.36;100.00;100592.73;1694285;84;21443;-75
2021/10/21 03:47:28;;;;;;;17.57;9.87;;;;;;;7.38;100.00;100590.78;1716210;84;21069;-74
2021/10/21 03:49:55;;;;;;;22.50;11.13;;;;;;;7.39;100.00;100587.09;1691827;84;21007;-75
2021/10/21 03:52:22;;;;;;;19.73;10.70;;;;;;;7.41;100.00;100586.45;1707686;84;21043;-74
2021/10/21 03:54:49;;;;;;;19.50;10.53;;;;;;;7.41;100.00;100578.38;1707716;84;21050;-73
2021/10/21 03:57:16;;;;;;;19.43;10.23;;;;;;;7.44;100.00;100581.30;1714919;83;21078;-74
2021/10/21 03:59:43;;;;;;;19.87;10.93;;;;;;;7.45;100.00;100582.98;1710225;84;21539;-73
2021/10/21 04:02:11;;;;;;;20.67;11.13;;;;;;;7.45;100.00;100578.95;1710070;84;21552;-73
2021/10/21 04:04:38;;;;;;;21.33;10.87;;;;;;;7.46;100.00;100579.83;1709946;84;20999;-69
2021/10/21 04:07:05;;;;;;;20.40;10.67;;;;;;;7.47;100.00;100582.85;1711459;84;21517;-73
2021/10/21 04:09:33;;;;;;;20.10;10.83;;;;;;;7.47;100.00;100578.34;1711531;84;21050;-72
2021/10/21 04:12:03;;;;;;;20.90;10.83;;;;;;;7.48;100.00;100584.06;1711173;84;21062;-71
2021/10/21 04:14:32;;;;;;;21.33;12.10;;;;;;;7.48;100.00;100580.03;1709726;84;21043;-72
2021/10/21 04:16:59;;;;;;;19.87;11.20;;;;;;;7.49;100.00;100580.88;1711886;83;21559;-73
2021/10/21 04:19:26;;;;;;;23.10;12.70;;;;;;;7.50;100.00;100583.94;1709901;84;21043;-74
2021/10/21 04:21:53;;;;;;;21.50;12.27;;;;;;;7.52;100.00;100584.64;1710155;84;21091;-73
2021/10/21 04:24:20;;;;;;;20.87;12.47;;;;;;;7.52;100.00;100588.17;1710017;84;21042;-74
2021/10/21 04:26:47;;;;;;;22.60;12.10;;;;;;;7.53;100.00;100583.16;1710181;84;21575;-75
2021/10/21 04:29:14;;;;;;;21.03;11.63;;;;;;;7.55;100.00;100591.10;1710008;84;21067;-74
2021/10/21 04:31:41;;;;;;;20.63;11.10;;;;;;;7.57;100.00;100585.08;1710156;84;21051;-73
2021/10/21 04:34:09;;;;;;;20.87;11.93;;;;;;;7.58;100.00;100597.56;1711503;84;21579;-73
2021/10/21 04:36:36;;;;;;;21.77;12.27;;;;;;;7.59;100.00;100593.36;1709841;84;21122;-73
2021/10/21 04:39:05;;;;;;;20.60;11.80;;;;;;;7.60;100.00;100588.34;1710043;84;21583;-73
2021/10/21 04:41:31;;;;;;;22.17;11.60;;;;;;;7.62;100.00;100586.86;1688217;84;20995;-73
2021/10/21 04:43:59;;;;;;;21.93;11.70;;;;;;;7.63;100.00;100589.89;1711634;84;21019;-77
2021/10/21 04:46:26;;;;;;;23.07;11.60;;;;;;;7.64;100.00;100592.95;1669077;84;21054;-74
2021/10/21 04:48:52;;;;;;;22.87;12.23;;;;;;;7.65;100.00;100600.05;1688003;84;21522;-74
2021/10/21 04:51:19;;;;;;;20.83;11.83;;;;;;;7.66;100.00;100592.31;1694572;84;21003;-73
2021/10/21 04:53:46;;;;;;;22.73;12.47;;;;;;;7.68;100.00;100590.33;1676247;85;21073;-73
2021/10/21 04:56:13;;;;;;;23.43;12.33;;;;;;;7.71;100.00;100589.22;1653784;86;21121;-72
2021/10/21 04:58:40;;;;;;;21.33;11.87;;;;;;;7.75;100.00;100581.21;1695489;83;21068;-75
2021/10/21 05:01:08;;;;;;;21.83;12.13;;;;;;;7.77;100.00;100590.87;1715704;84;21034;-75
2021/10/21 05:03:35;;;;;;;21.53;11.83;;;;;;;7.81;100.00;100595.48;1711735;84;21030;-76
2021/10/21 05:06:02;;;;;;;20.97;11.47;;;;;;;7.85;100.00;100583.43;1711400;83;21086;-73
2021/10/21 05:08:30;;;;;;;20.37;11.50;;;;;;;7.91;100.00;100584.20;1711505;84;21472;-73
2021/10/21 05:10:57;;;;;;;22.53;11.53;;;;;;;7.99;100.00;100587.55;1711720;84;21495;-74
2021/10/21 05:13:25;;;;;;;18.60;11.47;;;;;;;8.05;100.00;100578.05;1711485;83;21018;-72
2021/10/21 05:15:54;;;;;;;20.70;11.63;;;;;;;8.10;100.00;100573.09;1714814;83;21543;-72
2021/10/21 05:18:21;;;;;;;18.93;11.40;;;;;;;8.17;100.00;100583.14;1715064;83;21050;-71
2021/10/21 05:20:48;;;;;;;21.70;11.70;;;;;;;8.24;100.00;100582.59;1715076;83;21042;-74
2021/10/21 05:23:15;;;;;;;20.70;11.90;;;;;;;8.30;100.00;100582.84;1711665;83;21082;-74
2021/10/21 05:25:43;;;;;;;20.33;11.70;;;;;;;8.37;100.00;100583.13;1715032;84;21089;-73
2021/10/21 05:28:10;;;;;;;21.37;11.87;;;;;;;8.45;100.00;100581.96;1712145;84;21015;-74
2021/10/21 05:30:37;;;;;;;23.80;12.03;;;;;;;8.52;100.00;100578.20;1714993;83;21043;-75
2021/10/21 05:33:05;;;;;;;21.00;12.20;;;;;;;8.61;100.00;100584.06;1711332;84;21058;-72
2021/10/21 05:35:32;;;;;;;26.43;13.47;;;;;;;8.71;100.00;100575.94;1714757;83;21050;-71
2021/10/21 05:38:00;;;;;;;28.00;14.93;;;;;;;8.81;100.00;100576.77;1711471;84;21547;-71
2021/10/21 05:40:27;;;;;;;28.30;15.90;;;;;;;8.91;100.00;100569.50;1714695;84;21102;-75
2021/10/21 05:42:56;;;;;;;20.00;11.67;;;;;;;9.00;100.00;100562.37;1711455;83;21011;-72
2021/10/21 05:45:23;;;;;;;21.53;11.37;;;;;;;9.09;100.00;100556.08;1711794;84;21539;-74
2021/10/21 05:47:50;;;;;;;21.00;11.27;;;;;;;9.22;100.00;100567.03;1716939;82;21023;-77
2021/10/21 05:50:17;;;;;;;18.17;9.93;;;;;;;9.30;100.00;100558.54;1693939;83;21047;-74
2021/10/21 05:52:45;;;;;;;19.33;10.30;;;;;;;9.39;100.00;100559.48;1681628;84;21062;-75
2021/10/21 05:55:12;;;;;;;17.35;9.30;;;;;;;9.47;100.00;100555.55;1674138;83;21077;-73
2021/10/21 05:57:39;;;;;;;22.50;9.90;;;;;;;9.58;100.00;100560.36;1660666;84;21093;-75
2021/10/21 06:00:09;;;;;;;18.90;9.60;;;;;;;9.68;100.00;100540.89;1687448;85;21022;-73
2021/10/21 06:02:38;;;;;;;16.73;9.33;;;;;;;9.76;100.00;100534.75;1684687;85;21535;-75
2021/10/21 06:05:09;;;;;;;19.33;9.53;;;;;;;9.86;100.00;100535.50;1684737;85;21042;-73
2021/10/21 06:07:36;;;;;;;19.90;9.25;;;;;;;9.98;100.00;100534.27;1663319;85;21047;-75
2021/10/21 06:10:05;;;;;;;21.60;10.20;;;;;;;10.09;100.00;100525.06;1684148;85;21627;-73
2021/10/21 06:12:35;;;;;;;20.15;8.83;;;;;;;10.21;100.00;100535.13;1664823;85;21105;-74
2021/10/21 06:15:04;;;;;;;19.12;8.78;;;;;;;10.31;100.00;100524.25;1694318;85;21082;-76
2021/10/21 06:17:31;;;;;;;15.58;7.95;;;;;;;10.43;100.00;100532.48;1694130;85;21037;-74
2021/10/21 06:19:58;;;;;;;18.12;9.03;;;;;;;10.52;100.00;100522.57;1693003;85;21202;-72
2021/10/21 06:22:25;;;;;;;17.50;9.03;;;;;;;10.61;100.00;100529.20;1662451;85;21042;-74
2021/10/21 06:24:54;;;;;;;21.48;9.48;;;;;;;10.71;100.00;100526.41;1663010;85;21082;-71
2021/10/21 06:27:21;;;;;;;18.50;8.90;;;;;;;10.81;100.00;100516.30;1662438;85;21045;-74
2021/10/21 06:29:49;;;;;;;20.15;9.35;;;;;;;10.97;100.00;100506.58;1684135;85;21050;-73
2021/10/21 06:32:17;;;;;;;23.22;8.45;;;;;;;11.13;100.00;100508.50;1684380;85;21065;-73
2021/10/21 06:34:45;;;;;;;16.23;8.25;;;;;;;11.26;100.00;100499.91;1684023;85;21090;-72
2021/10/21 06:37:11;;;;;;;23.05;8.70;;;;;;;11.34;100.00;100502.14;1662401;85;21492;-72
2021/10/21 06:39:38;;;;;;;15.45;7.85;;;;;;;11.48;100.00;100495.76;1683182;85;21015;-70
2021/10/21 06:42:06;;;;;;;19.17;8.18;;;;;;;11.56;100.00;100487.63;1673349;85;21058;-70
2021/10/21 06:44:33;;;;;;;17.07;8.25;;;;;;;11.58;100.00;100485.63;1688695;85;21034;-72
2021/10/21 06:47:01;;;;;;;23.85;9.00;;;;;;;11.68;100.00;100481.39;1692867;84;21557;-70
2021/10/21 06:49:30;;;;;;;18.70;9.48;;;;;;;11.75;100.00;100481.90;1680727;84;21539;-74
2021/10/21 06:51:57;;;;;;;19.40;7.92;;;;;;;11.85;100.00;100469.56;1677495;85;21082;-73
2021/10/21 06:54:24;;;;;;;24.70;8.63;;;;;;;11.92;100.00;100482.80;1686300;84;21609;-72
2021/10/21 06:56:51;;;;;;;19.55;8.75;;;;;;;11.97;100.00;100457.92;1626791;84;21092;-70
2021/10/21 06:59:18;;;;;;;20.00;8.33;;;;;;;11.96;100.00;100464.34;1708008;84;20980;-72
2021/10/21 07:01:45;;;;;;;15.93;8.45;;;;;;;11.97;100.00;100448.44;1709840;84;20995;-71
2021/10/21 07:04:12;;;;;;;29.12;9.18;;;;;;;12.02;100.00;100454.16;1671644;83;21001;-75
2021/10/21 07:06:40;;;;;;;15.30;8.03;;;;;;;12.14;100.00;100466.86;1695576;83;20975;-75
2021/10/21 07:09:07;;;;;;;17.95;7.70;;;;;;;12.15;100.00;100446.88;1696699;83;21010;-74
2021/10/21 07:11:34;;;;;;;26.73;8.63;;;;;;;12.27;100.00;100435.16;1689214;83;21539;-74
2021/10/21 07:14:01;;;;;;;20.20;8.00;;;;;;;12.36;100.00;100444.98;1687849;84;21003;-73
2021/10/21 07:16:28;;;;;;;15.38;7.00;;;;;;;12.39;100.00;100441.07;1684590;83;21026;-71
2021/10/21 07:18:56;;;;;;;37.83;9.60;;;;;;;12.48;100.00;100469.38;1681434;84;21050;-73
2021/10/21 07:21:23;;;;;;;23.27;8.13;;;;;;;12.59;100.00;100472.22;1693447;83;21046;-68
2021/10/21 07:23:52;;;;;;;19.67;8.60;;;;;;;12.63;100.00;100454.56;1689796;83;21031;-74
2021/10/21 07:26:20;;;;;;;21.80;8.90;;;;;;;12.66;100.00;100439.30;1684619;84;21318;-72
2021/10/21 07:28:47;;;;;;;28.50;8.05;;;;;;;12.73;100.00;100442.17;1628163;86;21085;-72
2021/10/21 07:31:16;;;;;;;20.63;8.07;;;;;;;12.78;100.00;100451.96;1625706;86;21083;-73
2021/10/21 07:33:43;;;;;;;30.90;7.95;;;;;;;12.79;100.00;100431.95;1640861;86;21014;-73
2021/10/21 07:36:10;;;;;;;17.82;7.10;;;;;;;12.86;100.00;100444.31;1645569;86;21011;-73
2021/10/21 07:38:38;;;;;;;23.95;8.00;;;;;;;12.93;100.00;100420.04;1638414;87;21021;-73
2021/10/21 07:41:05;;;;;;;30.25;8.05;;;;;;;13.02;100.00;100417.09;1625239;87;21078;-71
2021/10/21 07:43:37;;;;;;;23.57;7.55;;;;;;;13.11;100.00;100417.37;1633684;88;21058;-71
2021/10/21 07:46:04;;;;;;;16.62;6.78;;;;;;;13.19;100.00;100416.98;1636684;87;21119;-70
2021/10/21 07:48:31;;;;;;;13.70;6.55;;;;;;;13.33;100.00;100395.05;1636838;88;21058;-75
2021/10/21 07:50:58;;;;;;;22.82;6.70;;;;;;;13.44;100.00;100398.20;1637159;87;21064;-77
2021/10/21 07:53:29;;;;;;;17.02;7.12;;;;;;;13.53;100.00;100393.55;1636564;87;21015;-75
2021/10/21 07:55:56;;;;;;;18.20;6.20;;;;;;;13.59;100.00;100378.38;1690479;83;20984;-72
2021/10/21 07:58:24;;;;;;;17.80;6.33;;;;;;;13.65;100.00;100382.58;1692061;84;21101;-75
2021/10/21 08:00:51;;;;;;;28.50;7.75;;;;;;;13.76;100.00;100381.82;1668273;84;21031;-72
2021/10/21 08:03:19;;;;;;;14.40;6.55;;;;;;;13.90;100.00;100391.01;1689667;83;21093;-78
2021/10/21 08:05:48;;;;;;;20.60;6.37;;;;;;;13.99;100.00;100374.97;1702915;83;21064;-74
2021/10/21 08:08:15;;;;;;;14.47;6.60;;;;;;;14.04;100.00;100372.02;1699548;83;21049;-76
2021/10/21 08:10:42;;;;;;;14.43;6.90;;;;;;;14.12;100.00;100369.72;1693477;83;21503;-71
2021/10/21 08:13:11;;;;;;;16.42;6.70;;;;;;;14.19;100.00;100362.50;1676334;84;21140;-71
2021/10/21 08:15:38;;;;;;;21.55;6.60;;;;;;;14.30;100.00;100359.83;1706543;83;21386;-72
2021/10/21 08:18:14;;;;;;;19.10;6.75;;;;;;;14.30;100.00;100357.11;1693475;84;21113;-73
2021/10/21 08:20:42;;;;;;;22.50;6.20;;;;;;;14.32;100.00;100355.05;1690130;84;21467;-72
2021/10/21 08:23:10;;;;;;;16.93;5.90;;;;;;;14.38;100.00;100367.07;1698119;84;21499;-74
2021/10/21 08:25:38;;;;;;;12.90;5.90;;;;;;;14.43;100.00;100349.15;1691086;83;21090;-73
2021/10/21 08:28:06;;;;;;;17.52;6.92;;;;;;;14.62;100.00;100350.97;1697515;83;21046;-74
2021/10/21 08:30:37;;;;;;;16.25;6.60;;;;;;;14.81;100.00;100350.91;1696023;83;21002;-72
2021/10/21 08:33:04;;;;;;;17.17;6.70;;;;;;;14.93;100.00;100337.64;1676208;85;21086;-73
2021/10/21 08:35:32;;;;;;;19.55;6.55;;;;;;;14.98;100.00;100342.00;1678656;84;21040;-72
2021/10/21 08:38:00;;;;;;;20.23;7.87;;;;;;;15.01;100.00;100333.42;1681983;85;21460;-74
2021/10/21 08:40:31;;;;;;;31.93;10.23;;;;;;;15.05;100.00;100333.88;1689981;84;21002;-71
2021/10/21 08:43:02;;;;;;;20.10;9.58;;;;;;;15.02;100.00;100329.67;1692236;84;22153;-73
2021/10/21 08:45:29;;;;;;;32.60;8.13;;;;;;;14.98;100.00;100325.66;1620437;87;21551;-74
2021/10/21 08:48:01;;;;;;;18.10;7.55;;;;;;;15.00;100.00;100309.44;1681308;85;21031;-73
2021/10/21 08:50:26;;;;;;;20.90;8.73;;;;;;;15.07;100.00;100323.62;1696627;83;21533;-73
2021/10/21 08:52:53;;;;;;;18.73;6.87;;;;;;;15.17;100.00;100312.77;1696455;83;22008;-73
2021/10/21 08:55:20;;;;;;;16.70;6.72;;;;;;;15.23;100.00;100317.95;1696832;83;21038;-73
2021/10/21 08:57:47;;;;;;;22.45;6.83;;;;;;;15.21;100.00;100309.62;1699409;83;21065;-73
2021/10/21 09:00:14;;;;;;;19.42;6.50;;;;;;;15.26;100.00;100312.09;1703517;82;21046;-75
2021/10/21 09:05:24;;;;;;;26.82;8.23;;;;;;;15.36;100.00;100313.97;1690691;83;21006;-73
2021/10/21 09:07:57;;;;;;;30.45;8.73;;;;;;;15.35;100.00;100291.87;1688289;83;21011;-72
2021/10/21 09:10:24;;;;;;;27.98;8.75;;;;;;;15.26;100.00;100294.91;1690628;84;21390;-72
2021/10/21 09:12:52;;;;;;;41.18;8.78;;;;;;;15.14;100.00;100291.89;1666014;85;21011;-73
2021/10/21 09:15:23;;;;;;;17.05;6.17;;;;;;;15.07;100.00;100296.39;1685895;84;20960;-71
2021/10/21 09:17:50;;;;;;;21.35;6.78;;;;;;;14.97;100.00;100277.67;1696948;84;20964;-70
2021/10/21 09:20:38;;;;;;;37.23;7.60;;;;;;;14.90;100.00;100279.48;1680082;84;21073;-75
2021/10/21 09:23:12;;;;;;;18.70;6.10;;;;;;;14.88;100.00;100298.73;1694926;84;21066;-74
2021/10/21 09:25:40;;;;;;;16.75;5.85;;;;;;;14.88;100.00;100291.09;1686052;84;21030;-74
2021/10/21 09:28:25;;;;;;;22.87;6.50;;;;;;;14.86;100.00;100272.23;1676301;85;21713;-69
2021/10/21 09:31:07;;;;;;;26.90;6.55;;;;;;;14.87;100.00;100273.89;1658539;85;21014;-74
2021/10/21 09:33:56;;;;;;;17.98;6.53;;;;;;;14.85;100.00;100268.33;1617291;86;21585;-76
2021/10/21 09:36:24;;;;;;;13.22;6.40;;;;;;;14.88;100.00;100270.14;1653963;84;21043;-70
2021/10/21 09:38:53;;;;;;;15.63;5.90;;;;;;;14.93;100.00;100267.69;1695257;84;21018;-72
2021/10/21 09:41:33;;;;;;;14.07;5.95;;;;;;;14.96;100.00;100255.05;1698874;83;20994;-73
2021/10/21 09:44:00;;;;;;;12.40;5.92;;;;;;;15.02;100.00;100249.88;1694291;83;21518;-73
2021/10/21 09:46:41;;;;;;;14.63;6.00;;;;;;;15.15;100.00;100249.45;1667859;83;21095;-73
2021/10/21 09:49:29;;;;;;;19.23;6.20;;;;;;;15.38;100.00;100242.94;1677095;83;21052;-73
2021/10/21 09:51:57;;;;;;;11.68;5.60;;;;;;;15.38;100.00;100242.94;1689714;83;21608;-71
2021/10/21 09:54:24;;;;;;;16.45;6.83;;;;;;;15.50;100.00;100241.36;1679837;83;21079;-74
2021/10/21 09:57:01;;;;;;;16.37;6.20;;;;;;;15.62;100.00;100225.30;1666434;85;21546;-71
2021/10/21 09:59:37;;;;;;;14.65;6.08;;;;;;;15.67;100.00;100226.05;1666161;84;21134;-71
2021/10/21 10:02:21;;;;;;;16.15;6.10;;;;;;;15.67;100.00;100226.05;1613991;86;21641;-72
2021/10/21 10:04:51;;;;;;;15.75;5.62;;;;;;;15.67;100.00;100231.00;1655341;85;21023;-71
2021/10/21 10:07:21;;;;;;;15.08;6.08;;;;;;;15.75;100.00;100215.86;1693992;84;21046;-75
2021/10/21 10:09:50;;;;;;;15.05;5.40;;;;;;;15.76;100.00;100222.18;1668109;85;21089;-69
2021/10/21 10:12:18;;;;;;;14.55;5.70;;;;;;;15.72;100.00;100207.21;1693054;85;21033;-71
2021/10/21 10:14:47;;;;;;;11.28;5.60;;;;;;;15.78;100.00;100209.71;1716416;83;21682;-74
2021/10/21 10:17:15;;;;;;;12.78;5.10;;;;;;;15.78;100.00;100209.71;1694926;83;21109;-70
2021/10/21 10:19:46;;;;;;;15.95;5.67;;;;;;;15.70;100.00;100205.22;1697103;84;21543;-71
2021/10/21 10:22:27;;;;;;;12.40;5.80;;;;;;;15.69;100.00;100206.27;1674848;85;21534;-77
2021/10/21 10:24:54;;;;;;;16.02;6.47;;;;;;;15.69;100.00;100206.27;1626268;87;21555;-75
2021/10/21 10:27:29;;;;;;;14.58;6.92;;;;;;;15.92;100.00;100210.10;1568974;89;21013;-74
2021/10/21 10:30:01;;;;;;;19.73;6.28;;;;;;;15.92;100.00;100210.10;1594707;88;21065;-73
2021/10/21 10:32:43;;;;;;;17.98;6.70;;;;;;;15.99;100.00;100210.97;1638752;86;21663;-72
2021/10/21 10:35:17;;;;;;;14.33;6.67;;;;;;;15.99;100.00;100210.97;1632358;86;21079;-76
2021/10/21 10:37:48;;;;;;;23.18;6.75;;;;;;;15.95;100.00;100208.31;1581295;90;21092;-72
2021/10/21 10:40:15;;;;;;;16.73;5.67;;;;;;;15.99;100.00;100210.11;1564744;91;21166;-73
2021/10/21 10:42:50;;;;;;;18.35;6.45;;;;;;;16.02;100.00;100203.73;1537939;93;21088;-70
2021/10/21 10:45:18;;;;;;;12.30;5.92;;;;;;;16.01;100.00;100190.32;1536696;93;21067;-73
2021/10/21 10:47:51;;;;;;;20.48;5.87;;;;;;;16.06;100.00;100191.39;1539561;93;21099;-73
2021/10/21 10:50:30;;;;;;;14.77;5.40;;;;;;;16.19;100.00;100193.32;1539288;93;21123;-75
2021/10/21 10:53:05;;;;;;;23.45;5.92;;;;;;;16.17;100.00;100182.31;1536979;93;21137;-72
2021/10/21 10:55:41;;;;;;;17.12;5.45;;;;;;;16.12;100.00;100182.91;1537313;93;21123;-71
2021/10/21 10:58:17;;;;;;;19.87;6.97;;;;;;;16.14;100.00;100164.45;1520170;92;21593;-73
2021/10/21 11:00:50;;;;;;;25.72;8.23;;;;;;;16.10;100.00;100176.82;1475217;96;21291;-72
2021/10/21 11:03:35;;;;;;;14.50;6.40;;;;;;;15.98;100.00;100171.09;1480894;96;21045;-72
2021/10/21 11:06:15;;;;;;;19.77;7.25;;;;;;;15.91;100.00;100162.88;1479266;96;21251;-71
2021/10/21 11:08:53;;;;;;;20.85;7.85;;;;;;;15.84;100.00;100167.47;1475898;96;21101;-76
2021/10/21 11:12:00;;;;;;;15.95;7.10;;;;;;;15.83;100.00;100164.44;1458072;96;21070;-73
2021/10/21 11:14:39;;;;;;;20.65;6.42;;;;;;;16.07;100.00;100143.95;1424584;100;21686;-73
2021/10/21 11:17:09;;;;;;;15.20;6.83;;;;;;;16.07;100.00;100143.95;1453975;98;21097;-72
2021/10/21 11:19:45;;;;;;;17.35;6.35;;;;;;;16.23;100.00;100147.38;1445939;97;21073;-74
2021/10/21 11:22:36;;;;;;;19.92;7.03;;;;;;;16.38;100.00;100151.28;1448329;98;21130;-75
2021/10/21 11:25:07;;;;;;;17.67;9.20;;;;;;;16.47;100.00;100142.70;1466629;98;21165;-74
2021/10/21 11:27:42;;;;;;;18.85;7.37;;;;;;;16.55;100.00;100135.37;1468988;98;21148;-68